createdAt,value
2022-12-16T00:02:24.142Z,15.85
2022-12-16T00:04:57.912Z,15.78
2022-12-16T00:10:05.592Z,14.65
2022-12-16T00:12:38.347Z,14.38
2022-12-16T00:15:12.344Z,15.58
2022-12-16T00:17:45.056Z,14.18
2022-12-16T00:20:18.384Z,15.28
2022-12-16T00:22:51.140Z,14.10
2022-12-16T00:25:25.831Z,14.65
2022-12-16T00:28:00.445Z,15.83
2022-12-16T00:30:33.243Z,14.63
2022-12-16T00:33:06.918Z,14.78
2022-12-16T00:35:44.522Z,17.12
2022-12-16T00:38:14.354Z,17.70
2022-12-16T00:40:47.525Z,16.15
2022-12-16T00:43:20.628Z,19.07
2022-12-16T00:45:54.015Z,22.63
2022-12-16T00:48:26.685Z,19.82
2022-12-16T00:50:59.824Z,18.40
2022-12-16T00:53:33.302Z,17.37
2022-12-16T00:56:14.857Z,15.90
2022-12-16T00:58:47.984Z,15.98
2022-12-16T01:01:22.087Z,15.10
2022-12-16T01:03:58.211Z,16.70
2022-12-16T01:06:31.532Z,15.28
2022-12-16T01:09:04.437Z,13.50
2022-12-16T01:11:37.498Z,12.63
2022-12-16T01:14:10.409Z,16.30
2022-12-16T01:16:43.419Z,14.73
2022-12-16T01:19:16.307Z,16.60
2022-12-16T01:21:49.281Z,14.25
2022-12-16T01:26:55.511Z,15.98
2022-12-16T01:29:28.420Z,16.20
2022-12-16T01:32:01.523Z,16.35
2022-12-16T01:34:35.339Z,14.60
2022-12-16T01:37:08.233Z,16.45
2022-12-16T01:39:41.443Z,17.37
2022-12-16T01:42:23.015Z,17.70
2022-12-16T01:44:55.836Z,17.85
2022-12-16T01:47:32.421Z,17.40
2022-12-16T01:50:09.592Z,16.40
2022-12-16T01:52:46.471Z,16.67
2022-12-16T01:55:26.274Z,15.25
2022-12-16T01:58:12.781Z,15.05
2022-12-16T02:00:46.053Z,15.68
2022-12-16T02:03:19.010Z,15.83
2022-12-16T02:05:52.111Z,15.72
2022-12-16T02:08:28.349Z,17.20
2022-12-16T02:11:29.854Z,13.50
2022-12-16T02:14:13.447Z,15.32
2022-12-16T02:17:02.164Z,14.20
2022-12-16T02:19:39.620Z,18.50
2022-12-16T02:22:32.279Z,20.00
2022-12-16T02:25:45.935Z,16.87
2022-12-16T02:28:44.328Z,14.83
2022-12-16T02:31:57.371Z,14.40
2022-12-16T02:34:49.736Z,13.10
2022-12-16T02:37:40.261Z,12.15
2022-12-16T02:40:32.724Z,12.33
2022-12-16T02:43:16.180Z,12.18
2022-12-16T02:45:49.809Z,11.57
2022-12-16T02:48:22.585Z,11.95
2022-12-16T02:50:56.265Z,12.18
2022-12-16T02:53:29.616Z,13.05
2022-12-16T02:56:39.446Z,13.78
2022-12-16T02:59:41.440Z,14.23
2022-12-16T03:02:25.304Z,14.73
2022-12-16T03:05:05.824Z,13.30
2022-12-16T03:07:41.633Z,12.98
2022-12-16T03:10:18.186Z,13.70
2022-12-16T03:12:51.098Z,14.40
2022-12-16T03:15:27.309Z,13.10
2022-12-16T03:18:00.856Z,13.18
2022-12-16T03:20:53.254Z,13.78
2022-12-16T03:23:32.907Z,13.75
2022-12-16T03:26:13.369Z,14.65
2022-12-16T03:29:02.224Z,14.38
2022-12-16T03:31:52.024Z,14.55
2022-12-16T03:34:56.190Z,14.95
2022-12-16T03:37:34.004Z,14.23
2022-12-16T03:40:09.640Z,13.70
2022-12-16T03:42:43.871Z,15.95
2022-12-16T03:45:21.392Z,14.03
2022-12-16T03:47:57.006Z,14.10
2022-12-16T03:50:35.742Z,14.50
2022-12-16T03:53:09.596Z,13.40
2022-12-16T03:55:42.377Z,13.28
2022-12-16T03:58:15.267Z,14.13
2022-12-16T04:00:48.243Z,15.60
2022-12-16T04:03:23.133Z,15.95
2022-12-16T04:08:27.928Z,25.62
2022-12-16T04:11:17.610Z,18.55
2022-12-16T04:14:08.115Z,17.62
2022-12-16T04:16:59.078Z,17.90
2022-12-16T04:19:53.181Z,18.25
2022-12-16T04:22:48.754Z,20.20
2022-12-16T04:25:25.892Z,22.73
2022-12-16T04:27:58.938Z,19.85
2022-12-16T04:30:35.499Z,18.27
2022-12-16T04:33:31.853Z,17.05
2022-12-16T04:36:23.517Z,16.32
2022-12-16T04:39:14.931Z,14.80
2022-12-16T04:42:07.179Z,15.40
2022-12-16T04:44:57.718Z,13.80
2022-12-16T04:47:51.422Z,15.50
2022-12-16T04:50:40.549Z,16.02
2022-12-16T04:53:32.252Z,15.90
2022-12-16T04:56:23.350Z,13.80
2022-12-16T04:59:14.069Z,14.30
2022-12-16T05:02:04.808Z,12.58
2022-12-16T05:04:55.513Z,13.65
2022-12-16T05:07:46.543Z,13.48
2022-12-16T05:10:23.989Z,14.28
2022-12-16T05:13:15.294Z,13.62
2022-12-16T05:16:06.121Z,13.80
2022-12-16T05:18:56.628Z,16.15
2022-12-16T05:21:47.652Z,15.25
2022-12-16T05:24:38.081Z,14.53
2022-12-16T05:27:28.701Z,16.73
2022-12-16T05:30:19.382Z,21.00
2022-12-16T05:33:10.120Z,18.27
2022-12-16T05:36:01.158Z,16.20
2022-12-16T05:38:51.977Z,21.25
2022-12-16T05:41:42.877Z,20.43
2022-12-16T05:44:33.621Z,19.75
2022-12-16T05:47:24.391Z,15.55
2022-12-16T05:50:15.202Z,16.40
2022-12-16T05:53:11.349Z,18.00
2022-12-16T05:56:03.197Z,19.20
2022-12-16T05:58:54.071Z,17.98
2022-12-16T06:01:44.818Z,15.75
2022-12-16T06:04:35.566Z,17.62
2022-12-16T06:07:26.359Z,19.62
2022-12-16T06:10:16.696Z,19.42
2022-12-16T06:13:07.855Z,17.77
2022-12-16T06:16:02.453Z,17.70
2022-12-16T06:18:51.170Z,20.55
2022-12-16T06:21:41.668Z,15.32
2022-12-16T16:41:40.268Z,26.80
2022-12-16T16:44:32.247Z,27.60
2022-12-16T16:47:23.183Z,27.90
2022-12-16T16:50:19.077Z,21.97
2022-12-16T16:53:06.269Z,26.90
2022-12-16T16:58:50.786Z,22.67
2022-12-16T17:01:41.666Z,23.98
2022-12-16T17:04:32.575Z,25.48
2022-12-16T17:07:23.825Z,20.62
2022-12-16T17:10:14.714Z,19.70
2022-12-16T17:13:05.675Z,20.37
2022-12-16T17:15:57.622Z,21.62
2022-12-16T17:18:52.291Z,22.27
2022-12-16T17:21:40.695Z,18.80
2022-12-16T17:24:31.660Z,17.30
2022-12-16T17:27:41.591Z,17.25
2022-12-16T17:30:44.881Z,19.85
2022-12-16T17:33:32.385Z,19.12
2022-12-16T17:36:27.227Z,17.98
2022-12-16T17:39:15.736Z,18.73
2022-12-16T17:42:06.792Z,17.40
2022-12-16T17:44:57.354Z,19.73
2022-12-16T17:47:48.498Z,17.73
2022-12-16T17:50:39.910Z,19.80
2022-12-16T17:53:30.397Z,19.42
2022-12-16T17:56:25.343Z,22.15
2022-12-16T17:59:18.547Z,17.15
2022-12-16T18:02:09.404Z,18.07
2022-12-16T18:05:00.891Z,16.25
2022-12-16T18:07:51.462Z,16.77
2022-12-16T18:10:42.100Z,16.40
2022-12-16T18:13:33.064Z,17.50
2022-12-16T18:16:24.382Z,23.40
2022-12-16T18:18:58.846Z,26.00
2022-12-16T18:21:51.007Z,18.55
2022-12-16T18:24:46.691Z,21.62
2022-12-16T18:27:34.864Z,18.45
2022-12-16T18:30:27.723Z,18.40
2022-12-16T18:33:18.867Z,20.45
2022-12-16T18:36:10.097Z,17.23
2022-12-16T18:39:00.944Z,15.40
2022-12-16T18:41:52.393Z,15.85
2022-12-16T18:44:43.039Z,15.70
2022-12-16T18:47:33.469Z,15.83
2022-12-16T18:50:30.427Z,20.48
2022-12-16T18:53:13.733Z,16.25
2022-12-16T18:56:04.887Z,17.17
2022-12-16T18:58:55.833Z,15.20
2022-12-16T19:01:46.338Z,16.93
2022-12-16T19:04:36.749Z,19.75
2022-12-16T19:07:27.507Z,16.48
2022-12-16T19:10:19.832Z,14.15
2022-12-16T19:13:11.930Z,15.38
2022-12-16T19:16:05.254Z,16.23
2022-12-16T19:18:42.286Z,13.62
2022-12-16T19:21:32.816Z,15.32
2022-12-16T19:24:23.557Z,15.98
2022-12-16T19:27:15.630Z,16.45
2022-12-16T19:30:07.408Z,13.65
2022-12-16T19:32:58.403Z,15.63
2022-12-16T19:35:49.033Z,14.73
2022-12-16T19:38:39.893Z,13.45
2022-12-16T19:41:38.339Z,13.15
2022-12-16T19:44:28.735Z,12.70
2022-12-16T19:47:19.792Z,12.73
2022-12-16T19:50:10.656Z,13.70
2022-12-16T19:53:02.084Z,13.80
2022-12-16T19:55:52.678Z,16.75
2022-12-16T19:58:44.236Z,20.95
2022-12-16T20:01:34.943Z,22.07
2022-12-16T20:04:25.837Z,24.47
2022-12-16T20:07:20.201Z,22.85
2022-12-16T20:10:08.508Z,20.12
2022-12-16T20:13:00.780Z,18.15
2022-12-16T20:15:51.894Z,18.10
2022-12-16T20:18:42.951Z,18.17
2022-12-16T20:21:33.903Z,15.53
2022-12-16T20:24:24.772Z,13.83
2022-12-16T20:27:15.385Z,12.95
2022-12-16T20:30:05.994Z,12.43
2022-12-16T20:32:56.974Z,12.47
2022-12-16T20:35:47.648Z,13.20
2022-12-16T20:38:38.225Z,11.30
2022-12-16T20:41:28.863Z,12.05
2022-12-16T20:44:19.318Z,12.05
2022-12-16T20:47:10.810Z,12.07
2022-12-16T20:50:02.274Z,12.47
2022-12-16T20:52:53.345Z,11.65
2022-12-16T20:55:45.786Z,13.05
2022-12-16T20:58:40.265Z,11.20
2022-12-16T21:01:30.928Z,9.83
2022-12-16T21:04:21.879Z,10.72
2022-12-16T21:07:15.228Z,9.53
2022-12-16T21:10:06.659Z,9.65
2022-12-16T21:14:42.849Z,8.28
2022-12-16T21:15:52.817Z,9.38
2022-12-16T21:18:45.266Z,8.15
2022-12-16T21:21:19.942Z,7.03
2022-12-16T21:27:00.157Z,7.05
2022-12-16T21:29:52.939Z,7.55
2022-12-16T21:32:45.495Z,6.90
2022-12-16T21:35:38.013Z,6.53
2022-12-16T21:38:30.468Z,6.62
2022-12-16T21:41:21.329Z,6.78
2022-12-16T21:44:14.612Z,6.42
2022-12-16T21:46:51.933Z,6.80
2022-12-16T21:49:43.145Z,7.58
2022-12-16T21:52:33.816Z,6.92
2022-12-16T21:55:25.622Z,7.10
2022-12-16T21:58:16.266Z,7.60
2022-12-16T22:01:15.690Z,7.97
2022-12-16T22:04:06.028Z,7.28
2022-12-16T22:06:56.500Z,7.15
2022-12-16T22:09:46.793Z,8.38
2022-12-16T22:12:37.246Z,7.67
2022-12-16T22:15:28.832Z,8.18
2022-12-16T22:18:19.230Z,7.97
2022-12-16T22:21:19.570Z,7.75
2022-12-16T22:24:10.447Z,7.70
2022-12-16T22:27:01.116Z,8.13
2022-12-16T22:29:53.454Z,7.28
2022-12-16T22:32:45.779Z,7.37
2022-12-16T22:35:36.511Z,8.88
2022-12-16T22:38:27.187Z,7.70
2022-12-16T22:41:20.160Z,7.92
2022-12-16T22:44:10.920Z,8.48
2022-12-16T22:47:01.630Z,8.30
2022-12-16T22:49:52.379Z,7.78
2022-12-16T22:52:44.451Z,7.72
2022-12-16T22:55:35.260Z,8.20
2022-12-16T22:58:30.759Z,9.20
2022-12-16T23:01:21.614Z,8.93
2022-12-16T23:04:12.381Z,10.90
2022-12-16T23:07:03.426Z,10.90
2022-12-16T23:09:54.223Z,12.85
2022-12-16T23:12:46.471Z,11.43
2022-12-16T23:15:37.199Z,12.20
2022-12-16T23:18:28.445Z,8.68
2022-12-16T23:21:19.200Z,9.13
2022-12-16T23:24:13.137Z,8.93
2022-12-16T23:27:04.427Z,9.10
2022-12-16T23:29:56.770Z,8.33
2022-12-16T23:32:48.289Z,8.25
2022-12-16T23:35:39.117Z,8.15
2022-12-16T23:38:30.579Z,8.88
2022-12-16T23:41:21.530Z,9.45
2022-12-16T23:44:12.164Z,8.05
2022-12-16T23:47:02.623Z,9.10
2022-12-16T23:49:53.742Z,8.73
2022-12-16T23:52:45.930Z,8.88
2022-12-16T23:55:36.429Z,8.25
2022-12-16T23:58:28.069Z,9.38
